Manistique, MI

2:10 AM EST on November 24, 2014 (GMT -0500)
Schoolcraft County | Change Station
CLOSE
Current Station
Airport
Location: Manistique,
Elevation: 686 ft
Nearby Weather Stations
Active Advisory: Dense Fog Advisory

Elev 686 ft 45.97 °N, 86.17 °W | Updated 16 minutes ago

Rain
Rain
42 °F
Feels Like 38 °F
N
7
Wind Variable Wind from ENE

Today
High -- | Low -- °F
--% Chance of Precip.
Yesterday
High -- | Low -- °F
Precip. -- in
7:57 AM 5:05 PM
Waxing Crescent, 4% visible
Pressure 29.11 in
Visibility 7.0 miles
Clouds Overcast 300 ft
Windchill 38 °F
Dew Point 42 °F
Humidity 100%
Rainfall 0.29 in
Snow Depth Not available.
UV 0 out of 12
Pollen .10 out of 12
Air Quality Not available.
Flu Activity Not available.
METAR KISQ 240654Z AUTO 07006KT 7SM RA OVC003 06/06 A2911 RMK AO2 P0008 T00550055

More Conditions Fewer Conditions

Pressure 29.11 in
Visibility 7.0 miles
Clouds Overcast 300 ft
Windchill 38 °F
Dew Point 42 °F
Humidity 100%
Rainfall 0.29 in
Snow Depth Not available.
UV 0 out of 12
Pollen .10 out of 12
Air Quality Not available.
Flu Activity Not available.
METAR KISQ 240654Z AUTO 07006KT 7SM RA OVC003 06/06 A2911 RMK AO2 P0008 T00550055

More Conditions Fewer Conditions

10-Day Weather Forecast

Almanac

Astronomy

Nov. 24, 2014 Rise Set
Actual Time
Civil Twilight
Nautical Twilight
Astronomical Twilight
Moon
Length of Visible Light
Length of Day
Tomorrow will be .
, % of the Moon is Illuminated

Today's Extremes

State Highs State Lows

Community

WunderPhotos

Upload Photos

1,773,295 photos uploaded!

WunderBlogs® & News

Nearby

Air Quality

  Air Quality AQ Index Pollutant
Not available.

Snow Depth

Station Depth Elevation

Earthquake Activity

City Distance Mag. Time & Date
Minimum magnitude displayed is 2.5.

Coastal Water Temperatures

Place Temperature

Nearby Weather Stations